sensor_id;sensor_type;location;lat;lon;timestamp;temperature;humidity
42261;DHT22;27926;48.062;7.474;2022-09-28T00:00:25;10.70;99.90
42261;DHT22;27926;48.062;7.474;2022-09-28T00:02:49;10.70;99.90
42261;DHT22;27926;48.062;7.474;2022-09-28T00:05:14;10.90;99.90
42261;DHT22;27926;48.062;7.474;2022-09-28T00:07:39;10.80;99.90
42261;DHT22;27926;48.062;7.474;2022-09-28T00:10:03;10.80;99.90
42261;DHT22;27926;48.062;7.474;2022-09-28T00:12:28;10.80;99.90
42261;DHT22;27926;48.062;7.474;2022-09-28T00:14:54;10.80;99.90
42261;DHT22;27926;48.062;7.474;2022-09-28T00:17:19;10.80;99.90
42261;DHT22;27926;48.062;7.474;2022-09-28T00:19:46;10.80;99.90
42261;DHT22;27926;48.062;7.474;2022-09-28T00:22:10;10.80;99.90
42261;DHT22;27926;48.062;7.474;2022-09-28T00:24:35;10.80;99.90
42261;DHT22;27926;48.062;7.474;2022-09-28T00:26:59;10.90;99.90
42261;DHT22;27926;48.062;7.474;2022-09-28T00:29:26;11.10;99.90
42261;DHT22;27926;48.062;7.474;2022-09-28T00:31:53;10.90;99.90
42261;DHT22;27926;48.062;7.474;2022-09-28T00:34:22;10.90;99.90
42261;DHT22;27926;48.062;7.474;2022-09-28T00:36:47;10.90;99.90
42261;DHT22;27926;48.062;7.474;2022-09-28T00:39:13;10.90;99.90
42261;DHT22;27926;48.062;7.474;2022-09-28T00:41:38;10.90;99.90
42261;DHT22;27926;48.062;7.474;2022-09-28T00:46:45;10.90;99.90
42261;DHT22;27926;48.062;7.474;2022-09-28T00:49:14;11.00;99.90
42261;DHT22;27926;48.062;7.474;2022-09-28T00:51:43;11.00;99.90
42261;DHT22;27926;48.062;7.474;2022-09-28T00:54:09;11.00;99.90
42261;DHT22;27926;48.062;7.474;2022-09-28T00:56:36;10.90;99.90
42261;DHT22;27926;48.062;7.474;2022-09-28T00:59:01;11.00;99.90
42261;DHT22;27926;48.062;7.474;2022-09-28T01:01:28;11.00;99.90
42261;DHT22;27926;48.062;7.474;2022-09-28T01:03:52;11.00;99.90
42261;DHT22;27926;48.062;7.474;2022-09-28T01:06:23;11.00;99.90
42261;DHT22;27926;48.062;7.474;2022-09-28T01:08:56;11.00;99.90
42261;DHT22;27926;48.062;7.474;2022-09-28T01:11:21;11.00;99.90
42261;DHT22;27926;48.062;7.474;2022-09-28T01:13:47;11.00;99.90
42261;DHT22;27926;48.062;7.474;2022-09-28T01:24:45;11.10;99.90
42261;DHT22;27926;48.062;7.474;2022-09-28T01:27:28;11.00;99.90
42261;DHT22;27926;48.062;7.474;2022-09-28T01:35:14;11.00;99.90
42261;DHT22;27926;48.062;7.474;2022-09-28T01:37:47;11.00;99.90
42261;DHT22;27926;48.062;7.474;2022-09-28T01:40:14;11.00;99.90
42261;DHT22;27926;48.062;7.474;2022-09-28T01:42:40;11.00;99.90
42261;DHT22;27926;48.062;7.474;2022-09-28T01:45:15;11.00;99.90
42261;DHT22;27926;48.062;7.474;2022-09-28T01:47:40;11.00;99.90
42261;DHT22;27926;48.062;7.474;2022-09-28T01:50:11;11.00;99.90
42261;DHT22;27926;48.062;7.474;2022-09-28T01:52:50;11.00;99.90
42261;DHT22;27926;48.062;7.474;2022-09-28T02:00:13;11.00;99.90
42261;DHT22;27926;48.062;7.474;2022-09-28T02:03:03;10.90;99.90
42261;DHT22;27926;48.062;7.474;2022-09-28T02:05:33;10.90;99.90
42261;DHT22;27926;48.062;7.474;2022-09-28T02:11:06;10.90;99.90
42261;DHT22;27926;48.062;7.474;2022-09-28T02:18:32;10.80;99.90
42261;DHT22;27926;48.062;7.474;2022-09-28T02:21:08;10.80;99.90
42261;DHT22;27926;48.062;7.474;2022-09-28T02:23:35;10.80;99.90
42261;DHT22;27926;48.062;7.474;2022-09-28T02:26:04;10.80;99.90
42261;DHT22;27926;48.062;7.474;2022-09-28T02:28:29;10.90;99.90
42261;DHT22;27926;48.062;7.474;2022-09-28T02:30:54;10.80;99.90
42261;DHT22;27926;48.062;7.474;2022-09-28T02:33:35;10.80;99.90
42261;DHT22;27926;48.062;7.474;2022-09-28T02:36:01;10.80;99.90
42261;DHT22;27926;48.062;7.474;2022-09-28T02:38:26;10.80;99.90
42261;DHT22;27926;48.062;7.474;2022-09-28T02:41:02;10.80;99.90
42261;DHT22;27926;48.062;7.474;2022-09-28T02:43:39;10.80;99.90
42261;DHT22;27926;48.062;7.474;2022-09-28T02:51:46;10.70;99.90
42261;DHT22;27926;48.062;7.474;2022-09-28T03:05:22;10.70;99.90
42261;DHT22;27926;48.062;7.474;2022-09-28T03:08:31;10.60;99.90
42261;DHT22;27926;48.062;7.474;2022-09-28T03:11:08;10.60;99.90
42261;DHT22;27926;48.062;7.474;2022-09-28T03:13:36;10.60;99.90
42261;DHT22;27926;48.062;7.474;2022-09-28T03:16:11;10.60;99.90
42261;DHT22;27926;48.062;7.474;2022-09-28T03:18:35;10.70;99.90
42261;DHT22;27926;48.062;7.474;2022-09-28T03:21:00;10.70;99.90
42261;DHT22;27926;48.062;7.474;2022-09-28T03:23:27;10.70;99.90
42261;DHT22;27926;48.062;7.474;2022-09-28T03:25:51;10.60;99.90
42261;DHT22;27926;48.062;7.474;2022-09-28T03:28:16;10.60;99.90
42261;DHT22;27926;48.062;7.474;2022-09-28T03:30:41;10.80;99.90
42261;DHT22;27926;48.062;7.474;2022-09-28T03:33:06;10.60;99.90
42261;DHT22;27926;48.062;7.474;2022-09-28T03:35:31;10.60;99.90
42261;DHT22;27926;48.062;7.474;2022-09-28T03:37:56;10.60;99.90
42261;DHT22;27926;48.062;7.474;2022-09-28T03:40:20;10.60;99.90
42261;DHT22;27926;48.062;7.474;2022-09-28T03:42:45;10.70;99.90
42261;DHT22;27926;48.062;7.474;2022-09-28T03:45:10;10.60;99.90
42261;DHT22;27926;48.062;7.474;2022-09-28T03:47:34;10.60;99.90
42261;DHT22;27926;48.062;7.474;2022-09-28T03:49:59;10.60;99.90
42261;DHT22;27926;48.062;7.474;2022-09-28T03:52:23;10.60;99.90
42261;DHT22;27926;48.062;7.474;2022-09-28T03:54:48;10.70;99.90
42261;DHT22;27926;48.062;7.474;2022-09-28T03:57:13;10.70;99.90
42261;DHT22;27926;48.062;7.474;2022-09-28T03:59:37;10.80;99.90
42261;DHT22;27926;48.062;7.474;2022-09-28T04:02:03;10.70;99.90
42261;DHT22;27926;48.062;7.474;2022-09-28T04:04:28;10.80;99.90
42261;DHT22;27926;48.062;7.474;2022-09-28T04:06:52;10.80;99.90
42261;DHT22;27926;48.062;7.474;2022-09-28T04:09:17;10.80;99.90
42261;DHT22;27926;48.062;7.474;2022-09-28T04:11:42;10.80;99.90
42261;DHT22;27926;48.062;7.474;2022-09-28T04:14:06;10.80;99.90
42261;DHT22;27926;48.062;7.474;2022-09-28T04:16:31;10.80;99.90
42261;DHT22;27926;48.062;7.474;2022-09-28T04:18:57;10.80;99.90
42261;DHT22;27926;48.062;7.474;2022-09-28T04:21:22;10.80;99.90
42261;DHT22;27926;48.062;7.474;2022-09-28T04:23:46;10.80;99.90
42261;DHT22;27926;48.062;7.474;2022-09-28T04:26:21;10.80;99.90
42261;DHT22;27926;48.062;7.474;2022-09-28T04:28:46;10.80;99.90
42261;DHT22;27926;48.062;7.474;2022-09-28T04:31:35;10.80;99.90
42261;DHT22;27926;48.062;7.474;2022-09-28T04:34:00;10.80;99.90
42261;DHT22;27926;48.062;7.474;2022-09-28T04:36:24;10.80;99.90
42261;DHT22;27926;48.062;7.474;2022-09-28T04:38:51;10.80;99.90
42261;DHT22;27926;48.062;7.474;2022-09-28T04:41:15;10.90;99.90
42261;DHT22;27926;48.062;7.474;2022-09-28T04:43:40;10.80;99.90
42261;DHT22;27926;48.062;7.474;2022-09-28T04:46:05;10.80;99.90
42261;DHT22;27926;48.062;7.474;2022-09-28T04:48:29;10.90;99.90
42261;DHT22;27926;48.062;7.474;2022-09-28T04:50:55;10.80;99.90
42261;DHT22;27926;48.062;7.474;2022-09-28T04:53:20;10.80;99.90
42261;DHT22;27926;48.062;7.474;2022-09-28T04:55:53;10.80;99.90
42261;DHT22;27926;48.062;7.474;2022-09-28T04:58:17;10.80;99.90
42261;DHT22;27926;48.062;7.474;2022-09-28T05:00:42;10.80;99.90
42261;DHT22;27926;48.062;7.474;2022-09-28T05:03:07;10.80;99.90
42261;DHT22;27926;48.062;7.474;2022-09-28T05:05:31;10.90;99.90
42261;DHT22;27926;48.062;7.474;2022-09-28T05:07:57;10.90;99.90
42261;DHT22;27926;48.062;7.474;2022-09-28T05:10:22;10.80;99.90
42261;DHT22;27926;48.062;7.474;2022-09-28T05:12:50;10.90;99.90
42261;DHT22;27926;48.062;7.474;2022-09-28T05:15:14;11.10;99.90
42261;DHT22;27926;48.062;7.474;2022-09-28T05:17:39;10.90;99.90
42261;DHT22;27926;48.062;7.474;2022-09-28T05:20:04;10.90;99.90
42261;DHT22;27926;48.062;7.474;2022-09-28T05:22:29;10.80;99.90
42261;DHT22;27926;48.062;7.474;2022-09-28T05:24:53;10.90;99.90
42261;DHT22;27926;48.062;7.474;2022-09-28T05:27:18;10.80;99.90
42261;DHT22;27926;48.062;7.474;2022-09-28T05:29:43;10.90;99.90
42261;DHT22;27926;48.062;7.474;2022-09-28T05:32:07;10.90;99.90
42261;DHT22;27926;48.062;7.474;2022-09-28T05:34:32;11.00;99.90
42261;DHT22;27926;48.062;7.474;2022-09-28T05:36:57;10.90;99.90
42261;DHT22;27926;48.062;7.474;2022-09-28T05:39:21;11.00;99.90
42261;DHT22;27926;48.062;7.474;2022-09-28T05:41:46;10.90;99.90
42261;DHT22;27926;48.062;7.474;2022-09-28T05:44:10;11.00;99.90
42261;DHT22;27926;48.062;7.474;2022-09-28T05:46:35;10.90;99.90
42261;DHT22;27926;48.062;7.474;2022-09-28T05:49:00;10.90;99.90
42261;DHT22;27926;48.062;7.474;2022-09-28T05:51:24;10.90;99.90
42261;DHT22;27926;48.062;7.474;2022-09-28T05:53:49;10.90;99.90
42261;DHT22;27926;48.062;7.474;2022-09-28T05:56:13;10.90;99.90
42261;DHT22;27926;48.062;7.474;2022-09-28T05:58:38;10.90;99.90
42261;DHT22;27926;48.062;7.474;2022-09-28T06:01:03;11.00;99.90
42261;DHT22;27926;48.062;7.474;2022-09-28T06:03:27;11.00;99.90
42261;DHT22;27926;48.062;7.474;2022-09-28T06:05:52;11.00;99.90
42261;DHT22;27926;48.062;7.474;2022-09-28T06:08:17;11.00;99.90
42261;DHT22;27926;48.062;7.474;2022-09-28T06:10:41;11.00;99.90
42261;DHT22;27926;48.062;7.474;2022-09-28T06:13:06;11.00;99.90
42261;DHT22;27926;48.062;7.474;2022-09-28T06:15:34;11.00;99.90
42261;DHT22;27926;48.062;7.474;2022-09-28T06:18:08;11.10;99.90
42261;DHT22;27926;48.062;7.474;2022-09-28T06:20:35;11.10;99.90
42261;DHT22;27926;48.062;7.474;2022-09-28T06:23:00;11.10;99.90
42261;DHT22;27926;48.062;7.474;2022-09-28T06:25:25;11.10;99.90
42261;DHT22;27926;48.062;7.474;2022-09-28T06:27:56;11.10;99.90
42261;DHT22;27926;48.062;7.474;2022-09-28T06:30:22;11.10;99.90
42261;DHT22;27926;48.062;7.474;2022-09-28T06:32:57;11.10;99.90
42261;DHT22;27926;48.062;7.474;2022-09-28T06:35:24;11.20;99.90
42261;DHT22;27926;48.062;7.474;2022-09-28T06:37:49;11.20;99.90
42261;DHT22;27926;48.062;7.474;2022-09-28T06:40:14;11.20;99.90
42261;DHT22;27926;48.062;7.474;2022-09-28T06:42:39;11.30;99.90
42261;DHT22;27926;48.062;7.474;2022-09-28T06:45:04;11.30;99.90
42261;DHT22;27926;48.062;7.474;2022-09-28T06:47:29;11.40;99.90
42261;DHT22;27926;48.062;7.474;2022-09-28T06:49:55;11.30;99.90
42261;DHT22;27926;48.062;7.474;2022-09-28T06:52:20;11.40;99.90
42261;DHT22;27926;48.062;7.474;2022-09-28T06:54:45;11.30;99.90
42261;DHT22;27926;48.062;7.474;2022-09-28T06:57:09;11.30;99.90
42261;DHT22;27926;48.062;7.474;2022-09-28T06:59:34;11.30;99.90
42261;DHT22;27926;48.062;7.474;2022-09-28T07:01:58;11.30;99.90
42261;DHT22;27926;48.062;7.474;2022-09-28T07:04:23;11.20;99.90
42261;DHT22;27926;48.062;7.474;2022-09-28T07:06:48;11.30;99.90
42261;DHT22;27926;48.062;7.474;2022-09-28T07:09:13;11.30;99.90
42261;DHT22;27926;48.062;7.474;2022-09-28T07:11:38;11.30;99.90
42261;DHT22;27926;48.062;7.474;2022-09-28T07:14:03;11.30;99.90
42261;DHT22;27926;48.062;7.474;2022-09-28T07:16:27;11.40;99.90
42261;DHT22;27926;48.062;7.474;2022-09-28T07:18:52;11.40;99.90
42261;DHT22;27926;48.062;7.474;2022-09-28T07:21:16;11.50;99.90
42261;DHT22;27926;48.062;7.474;2022-09-28T07:23:41;11.50;99.90
42261;DHT22;27926;48.062;7.474;2022-09-28T07:26:06;11.60;99.90
42261;DHT22;27926;48.062;7.474;2022-09-28T07:28:31;11.70;99.90
42261;DHT22;27926;48.062;7.474;2022-09-28T07:30:57;11.70;99.90
42261;DHT22;27926;48.062;7.474;2022-09-28T07:33:22;11.90;99.90
42261;DHT22;27926;48.062;7.474;2022-09-28T07:35:52;11.90;99.90
42261;DHT22;27926;48.062;7.474;2022-09-28T07:38:17;12.00;99.90
42261;DHT22;27926;48.062;7.474;2022-09-28T07:40:42;12.00;99.90
42261;DHT22;27926;48.062;7.474;2022-09-28T07:43:25;11.90;99.90
42261;DHT22;27926;48.062;7.474;2022-09-28T07:45:51;12.00;99.90
42261;DHT22;27926;48.062;7.474;2022-09-28T07:48:17;12.10;99.90
42261;DHT22;27926;48.062;7.474;2022-09-28T07:50:55;12.00;99.90
42261;DHT22;27926;48.062;7.474;2022-09-28T07:53:22;12.00;99.90
42261;DHT22;27926;48.062;7.474;2022-09-28T07:55:55;12.00;99.90
42261;DHT22;27926;48.062;7.474;2022-09-28T07:58:21;12.00;99.90
42261;DHT22;27926;48.062;7.474;2022-09-28T08:00:47;12.00;99.90
42261;DHT22;27926;48.062;7.474;2022-09-28T08:03:12;12.00;99.90
42261;DHT22;27926;48.062;7.474;2022-09-28T08:05:37;12.00;99.90
42261;DHT22;27926;48.062;7.474;2022-09-28T08:08:02;12.00;99.90
42261;DHT22;27926;48.062;7.474;2022-09-28T08:10:27;12.00;99.90
42261;DHT22;27926;48.062;7.474;2022-09-28T08:12:55;12.10;99.90
42261;DHT22;27926;48.062;7.474;2022-09-28T08:15:20;12.10;99.90
42261;DHT22;27926;48.062;7.474;2022-09-28T08:17:46;12.10;99.90
42261;DHT22;27926;48.062;7.474;2022-09-28T08:20:11;12.10;99.90
42261;DHT22;27926;48.062;7.474;2022-09-28T08:22:54;12.10;99.90
42261;DHT22;27926;48.062;7.474;2022-09-28T08:25:20;12.10;99.90
42261;DHT22;27926;48.062;7.474;2022-09-28T08:27:44;12.10;99.90
42261;DHT22;27926;48.062;7.474;2022-09-28T08:30:09;12.20;99.90
42261;DHT22;27926;48.062;7.474;2022-09-28T08:32:34;12.20;99.90
42261;DHT22;27926;48.062;7.474;2022-09-28T08:34:59;12.20;99.90
42261;DHT22;27926;48.062;7.474;2022-09-28T08:37:23;12.10;99.90
42261;DHT22;27926;48.062;7.474;2022-09-28T08:39:48;12.20;99.90
42261;DHT22;27926;48.062;7.474;2022-09-28T08:42:28;12.20;99.90
42261;DHT22;27926;48.062;7.474;2022-09-28T08:44:59;12.20;99.90
42261;DHT22;27926;48.062;7.474;2022-09-28T08:47:33;12.30;99.90
42261;DHT22;27926;48.062;7.474;2022-09-28T08:50:22;12.30;99.90
42261;DHT22;27926;48.062;7.474;2022-09-28T08:52:54;12.40;99.90
42261;DHT22;27926;48.062;7.474;2022-09-28T08:55:29;12.40;99.90
42261;DHT22;27926;48.062;7.474;2022-09-28T08:58:16;12.50;99.90
42261;DHT22;27926;48.062;7.474;2022-09-28T09:00:50;12.50;99.90
42261;DHT22;27926;48.062;7.474;2022-09-28T09:03:21;12.50;99.90
42261;DHT22;27926;48.062;7.474;2022-09-28T09:11:32;12.70;99.90
42261;DHT22;27926;48.062;7.474;2022-09-28T09:14:12;12.70;99.90
42261;DHT22;27926;48.062;7.474;2022-09-28T09:22:20;12.80;99.90
42261;DHT22;27926;48.062;7.474;2022-09-28T09:24:50;12.80;99.90
42261;DHT22;27926;48.062;7.474;2022-09-28T09:27:46;12.80;99.90
42261;DHT22;27926;48.062;7.474;2022-09-28T09:30:17;12.80;99.90
42261;DHT22;27926;48.062;7.474;2022-09-28T09:40:52;12.90;99.90
42261;DHT22;27926;48.062;7.474;2022-09-28T09:46:39;12.90;99.90
42261;DHT22;27926;48.062;7.474;2022-09-28T09:49:11;12.90;99.90
42261;DHT22;27926;48.062;7.474;2022-09-28T09:57:06;12.70;99.90
42261;DHT22;27926;48.062;7.474;2022-09-28T09:59:37;12.60;99.90
42261;DHT22;27926;48.062;7.474;2022-09-28T10:04:40;12.50;99.90
42261;DHT22;27926;48.062;7.474;2022-09-28T10:07:08;12.50;99.90
42261;DHT22;27926;48.062;7.474;2022-09-28T10:09:42;12.50;99.90
42261;DHT22;27926;48.062;7.474;2022-09-28T10:12:12;12.50;99.90
42261;DHT22;27926;48.062;7.474;2022-09-28T10:14:39;12.60;99.90
42261;DHT22;27926;48.062;7.474;2022-09-28T10:17:04;12.60;99.90
42261;DHT22;27926;48.062;7.474;2022-09-28T10:19:31;12.60;99.90
42261;DHT22;27926;48.062;7.474;2022-09-28T10:21:57;12.70;99.90
42261;DHT22;27926;48.062;7.474;2022-09-28T10:24:33;12.70;99.90
42261;DHT22;27926;48.062;7.474;2022-09-28T10:27:34;12.70;99.90
42261;DHT22;27926;48.062;7.474;2022-09-28T10:32:43;12.90;99.90
42261;DHT22;27926;48.062;7.474;2022-09-28T10:40:47;13.10;99.90
42261;DHT22;27926;48.062;7.474;2022-09-28T10:43:30;13.20;99.90
42261;DHT22;27926;48.062;7.474;2022-09-28T10:46:11;13.20;99.90
42261;DHT22;27926;48.062;7.474;2022-09-28T10:51:13;13.20;99.90
42261;DHT22;27926;48.062;7.474;2022-09-28T10:53:38;13.10;99.90
42261;DHT22;27926;48.062;7.474;2022-09-28T10:56:21;13.00;99.90
42261;DHT22;27926;48.062;7.474;2022-09-28T10:58:47;13.00;99.90
42261;DHT22;27926;48.062;7.474;2022-09-28T11:01:19;13.00;99.90
42261;DHT22;27926;48.062;7.474;2022-09-28T11:04:02;13.10;99.90
42261;DHT22;27926;48.062;7.474;2022-09-28T11:06:28;13.10;99.90
42261;DHT22;27926;48.062;7.474;2022-09-28T11:08:59;13.10;99.90
42261;DHT22;27926;48.062;7.474;2022-09-28T11:11:24;13.10;99.90
42261;DHT22;27926;48.062;7.474;2022-09-28T11:13:53;13.10;99.90
42261;DHT22;27926;48.062;7.474;2022-09-28T11:16:25;13.10;99.90
42261;DHT22;27926;48.062;7.474;2022-09-28T11:18:50;13.10;99.90
42261;DHT22;27926;48.062;7.474;2022-09-28T11:21:17;13.00;99.90
42261;DHT22;27926;48.062;7.474;2022-09-28T11:23:59;13.00;99.90
42261;DHT22;27926;48.062;7.474;2022-09-28T11:26:24;13.00;99.90
42261;DHT22;27926;48.062;7.474;2022-09-28T11:28:50;13.00;99.90
42261;DHT22;27926;48.062;7.474;2022-09-28T11:31:25;12.90;99.90
42261;DHT22;27926;48.062;7.474;2022-09-28T11:33:50;12.80;99.90
42261;DHT22;27926;48.062;7.474;2022-09-28T11:44:24;12.90;99.90
42261;DHT22;27926;48.062;7.474;2022-09-28T11:52:29;13.00;99.90
42261;DHT22;27926;48.062;7.474;2022-09-28T11:55:13;13.10;99.90
42261;DHT22;27926;48.062;7.474;2022-09-28T11:57:44;13.10;99.90
42261;DHT22;27926;48.062;7.474;2022-09-28T12:00:19;13.00;99.90
42261;DHT22;27926;48.062;7.474;2022-09-28T12:03:02;13.00;99.90
42261;DHT22;27926;48.062;7.474;2022-09-28T12:05:43;13.00;99.90
42261;DHT22;27926;48.062;7.474;2022-09-28T12:08:25;13.00;99.90
42261;DHT22;27926;48.062;7.474;2022-09-28T12:13:27;13.00;99.90
42261;DHT22;27926;48.062;7.474;2022-09-28T12:16:14;12.90;99.90
42261;DHT22;27926;48.062;7.474;2022-09-28T12:19:07;12.90;99.90
42261;DHT22;27926;48.062;7.474;2022-09-28T12:22:01;12.80;99.90
42261;DHT22;27926;48.062;7.474;2022-09-28T12:24:27;12.90;99.90
42261;DHT22;27926;48.062;7.474;2022-09-28T12:29:47;12.90;99.90
42261;DHT22;27926;48.062;7.474;2022-09-28T12:32:50;12.90;99.90
42261;DHT22;27926;48.062;7.474;2022-09-28T12:51:57;12.50;99.90
42261;DHT22;27926;48.062;7.474;2022-09-28T13:00:11;12.40;99.90
42261;DHT22;27926;48.062;7.474;2022-09-28T13:08:21;12.50;99.90
42261;DHT22;27926;48.062;7.474;2022-09-28T13:13:59;12.50;99.90
42261;DHT22;27926;48.062;7.474;2022-09-28T13:22:10;12.50;99.90
42261;DHT22;27926;48.062;7.474;2022-09-28T13:24:38;12.60;99.90
42261;DHT22;27926;48.062;7.474;2022-09-28T13:27:32;12.60;99.90
42261;DHT22;27926;48.062;7.474;2022-09-28T13:29:59;12.70;99.90
42261;DHT22;27926;48.062;7.474;2022-09-28T13:32:26;12.70;99.90
42261;DHT22;27926;48.062;7.474;2022-09-28T13:34:55;12.80;99.90
42261;DHT22;27926;48.062;7.474;2022-09-28T13:37:23;12.90;99.90
42261;DHT22;27926;48.062;7.474;2022-09-28T13:39:55;13.10;99.90
42261;DHT22;27926;48.062;7.474;2022-09-28T13:58:46;13.20;99.90
42261;DHT22;27926;48.062;7.474;2022-09-28T14:01:16;13.10;99.90
42261;DHT22;27926;48.062;7.474;2022-09-28T14:03:55;13.00;99.90
42261;DHT22;27926;48.062;7.474;2022-09-28T14:06:33;13.00;99.90
42261;DHT22;27926;48.062;7.474;2022-09-28T14:16:25;12.90;99.90
42261;DHT22;27926;48.062;7.474;2022-09-28T14:19:04;12.90;99.90
42261;DHT22;27926;48.062;7.474;2022-09-28T14:27:21;12.80;99.90
42261;DHT22;27926;48.062;7.474;2022-09-28T14:30:05;12.80;99.90
42261;DHT22;27926;48.062;7.474;2022-09-28T14:32:34;12.70;99.90
42261;DHT22;27926;48.062;7.474;2022-09-28T14:35:26;12.70;99.90
42261;DHT22;27926;48.062;7.474;2022-09-28T14:37:48;12.70;99.90
42261;DHT22;27926;48.062;7.474;2022-09-28T14:53:58;12.70;99.90
42261;DHT22;27926;48.062;7.474;2022-09-28T14:56:25;12.70;99.90
42261;DHT22;27926;48.062;7.474;2022-09-28T14:58:53;12.70;99.90
42261;DHT22;27926;48.062;7.474;2022-09-28T15:01:21;12.60;99.90
42261;DHT22;27926;48.062;7.474;2022-09-28T15:03:53;12.60;99.90
42261;DHT22;27926;48.062;7.474;2022-09-28T15:06:22;12.60;99.90
42261;DHT22;27926;48.062;7.474;2022-09-28T15:08:47;12.70;99.90
42261;DHT22;27926;48.062;7.474;2022-09-28T15:11:19;12.60;99.90
42261;DHT22;27926;48.062;7.474;2022-09-28T15:13:44;12.60;99.90
42261;DHT22;27926;48.062;7.474;2022-09-28T15:16:16;12.60;99.90
42261;DHT22;27926;48.062;7.474;2022-09-28T15:21:36;12.60;99.90
42261;DHT22;27926;48.062;7.474;2022-09-28T15:24:01;12.60;99.90
42261;DHT22;27926;48.062;7.474;2022-09-28T15:26:31;12.60;99.90
42261;DHT22;27926;48.062;7.474;2022-09-28T15:28:56;12.60;99.90
42261;DHT22;27926;48.062;7.474;2022-09-28T15:31:25;12.60;99.90
42261;DHT22;27926;48.062;7.474;2022-09-28T15:33:51;12.60;99.90
42261;DHT22;27926;48.062;7.474;2022-09-28T15:36:38;12.60;99.90
42261;DHT22;27926;48.062;7.474;2022-09-28T15:39:19;12.70;99.90
42261;DHT22;27926;48.062;7.474;2022-09-28T15:41:45;12.60;99.90
42261;DHT22;27926;48.062;7.474;2022-09-28T15:46:40;12.50;99.90
42261;DHT22;27926;48.062;7.474;2022-09-28T15:51:53;12.40;99.90
42261;DHT22;27926;48.062;7.474;2022-09-28T15:54:24;12.30;99.90
42261;DHT22;27926;48.062;7.474;2022-09-28T15:56:56;12.30;99.90
42261;DHT22;27926;48.062;7.474;2022-09-28T15:59:35;12.30;99.90
42261;DHT22;27926;48.062;7.474;2022-09-28T16:02:18;12.30;99.90
42261;DHT22;27926;48.062;7.474;2022-09-28T16:04:47;12.30;99.90
42261;DHT22;27926;48.062;7.474;2022-09-28T16:07:18;12.30;99.90
42261;DHT22;27926;48.062;7.474;2022-09-28T16:10:26;12.30;99.90
42261;DHT22;27926;48.062;7.474;2022-09-28T16:12:52;12.30;99.90
42261;DHT22;27926;48.062;7.474;2022-09-28T16:15:27;12.30;99.90
42261;DHT22;27926;48.062;7.474;2022-09-28T16:17:54;12.30;99.90
42261;DHT22;27926;48.062;7.474;2022-09-28T16:20:32;12.30;99.90
42261;DHT22;27926;48.062;7.474;2022-09-28T16:25:57;12.20;99.90
42261;DHT22;27926;48.062;7.474;2022-09-28T16:33:52;12.10;99.90
42261;DHT22;27926;48.062;7.474;2022-09-28T16:36:21;12.10;99.90
42261;DHT22;27926;48.062;7.474;2022-09-28T16:38:46;12.00;99.90
42261;DHT22;27926;48.062;7.474;2022-09-28T16:41:12;12.00;99.90
42261;DHT22;27926;48.062;7.474;2022-09-28T16:43:37;11.90;99.90
42261;DHT22;27926;48.062;7.474;2022-09-28T16:46:12;11.80;99.90
42261;DHT22;27926;48.062;7.474;2022-09-28T16:48:44;11.70;99.90
42261;DHT22;27926;48.062;7.474;2022-09-28T16:51:11;11.70;99.90
42261;DHT22;27926;48.062;7.474;2022-09-28T16:53:36;11.70;99.90
42261;DHT22;27926;48.062;7.474;2022-09-28T16:56:20;11.60;99.90
42261;DHT22;27926;48.062;7.474;2022-09-28T16:58:44;11.50;99.90
42261;DHT22;27926;48.062;7.474;2022-09-28T17:01:12;11.50;99.90
42261;DHT22;27926;48.062;7.474;2022-09-28T17:03:37;11.40;99.90
42261;DHT22;27926;48.062;7.474;2022-09-28T17:06:03;11.40;99.90
42261;DHT22;27926;48.062;7.474;2022-09-28T17:08:29;11.30;99.90
42261;DHT22;27926;48.062;7.474;2022-09-28T17:10:58;11.50;99.90
42261;DHT22;27926;48.062;7.474;2022-09-28T17:13:28;11.30;99.90
42261;DHT22;27926;48.062;7.474;2022-09-28T17:16:00;11.20;99.90
42261;DHT22;27926;48.062;7.474;2022-09-28T17:18:26;11.20;99.90
42261;DHT22;27926;48.062;7.474;2022-09-28T17:20:52;11.20;99.90
42261;DHT22;27926;48.062;7.474;2022-09-28T17:23:19;11.20;99.90
42261;DHT22;27926;48.062;7.474;2022-09-28T17:25:44;11.10;99.90
42261;DHT22;27926;48.062;7.474;2022-09-28T17:28:23;11.10;99.90
42261;DHT22;27926;48.062;7.474;2022-09-28T17:30:47;11.00;99.90
42261;DHT22;27926;48.062;7.474;2022-09-28T17:33:13;11.00;99.90
42261;DHT22;27926;48.062;7.474;2022-09-28T17:35:38;11.00;99.90
42261;DHT22;27926;48.062;7.474;2022-09-28T17:38:03;10.90;99.90
42261;DHT22;27926;48.062;7.474;2022-09-28T17:40:28;9.70;99.90
42261;DHT22;27926;48.062;7.474;2022-09-28T17:42:54;10.90;99.90
42261;DHT22;27926;48.062;7.474;2022-09-28T17:45:19;10.90;99.90
42261;DHT22;27926;48.062;7.474;2022-09-28T17:47:44;10.80;99.90
42261;DHT22;27926;48.062;7.474;2022-09-28T17:50:17;10.80;99.90
42261;DHT22;27926;48.062;7.474;2022-09-28T17:52:44;10.80;99.90
42261;DHT22;27926;48.062;7.474;2022-09-28T17:55:08;10.80;99.90
42261;DHT22;27926;48.062;7.474;2022-09-28T17:57:33;10.70;99.90
42261;DHT22;27926;48.062;7.474;2022-09-28T17:59:57;10.70;99.90
42261;DHT22;27926;48.062;7.474;2022-09-28T18:02:22;10.70;99.90
42261;DHT22;27926;48.062;7.474;2022-09-28T18:04:48;10.70;99.90
42261;DHT22;27926;48.062;7.474;2022-09-28T18:07:12;10.70;99.90
42261;DHT22;27926;48.062;7.474;2022-09-28T18:09:37;10.70;99.90
42261;DHT22;27926;48.062;7.474;2022-09-28T18:12:03;10.70;99.90
42261;DHT22;27926;48.062;7.474;2022-09-28T18:14:31;10.70;99.90
42261;DHT22;27926;48.062;7.474;2022-09-28T18:16:56;10.70;99.90
42261;DHT22;27926;48.062;7.474;2022-09-28T18:19:20;10.70;99.90
42261;DHT22;27926;48.062;7.474;2022-09-28T18:21:45;10.70;99.90
42261;DHT22;27926;48.062;7.474;2022-09-28T18:24:09;10.70;99.90
42261;DHT22;27926;48.062;7.474;2022-09-28T18:26:34;10.70;99.90
42261;DHT22;27926;48.062;7.474;2022-09-28T18:29:00;10.70;99.90
42261;DHT22;27926;48.062;7.474;2022-09-28T18:31:24;10.70;99.90
42261;DHT22;27926;48.062;7.474;2022-09-28T18:33:55;10.80;99.90
42261;DHT22;27926;48.062;7.474;2022-09-28T18:36:20;10.80;99.90
42261;DHT22;27926;48.062;7.474;2022-09-28T18:38:44;10.70;99.90
42261;DHT22;27926;48.062;7.474;2022-09-28T18:41:11;10.80;99.90
42261;DHT22;27926;48.062;7.474;2022-09-28T18:43:39;10.70;99.90
42261;DHT22;27926;48.062;7.474;2022-09-28T18:46:08;10.70;99.90
42261;DHT22;27926;48.062;7.474;2022-09-28T18:48:33;10.70;99.90
42261;DHT22;27926;48.062;7.474;2022-09-28T18:50:59;10.70;99.90
42261;DHT22;27926;48.062;7.474;2022-09-28T18:53:23;10.70;99.90
42261;DHT22;27926;48.062;7.474;2022-09-28T18:55:48;10.70;99.90
42261;DHT22;27926;48.062;7.474;2022-09-28T18:58:13;10.90;99.90
42261;DHT22;27926;48.062;7.474;2022-09-28T19:00:39;10.70;99.90
42261;DHT22;27926;48.062;7.474;2022-09-28T19:03:04;10.70;99.90